Baldwinville, Massachusetts
Current Conditions -  °F | °C
As of 8:52 AM on Wednesday 28 Jan 2015 (Local Time) from KORE Reporting Station
Clear Clear  
Wind Chill: -5°   Ceiling: Unl
Heat Index: 11°   Visibility: 10mi
Dew Point: -1°   Wind: 14mph
Humidity: 59%   Direction: 340°NNW
Pressure: 29.96"   Gusts: 23mph
Location:  42.62°N, 72.08°W
Report Text: KORE 281352Z AUTO 34012G20KT 10SM CLR M12/M18 A2996 RMK AO2 SLP156 T11171183
Loading
Personal Weather Stations






























Interactive Weather Map New forecast layout! Learn more

10-Day Weather Forecast

Advertisements
Track Severe Weather on mobile